Time;durP1;ratioP1;P1;durP2;ratioP2;P2;SDS_P1;SDS_P2;PMS_P1;PMS_P2;Temp;Humidity;BMP_temperature;BMP_pressure;BME280_temperature;BME280_humidity;BME280_pressure;Samples;Min_cycle;Max_cycle;Signal;HPM_P1;HPM_P2
2023/11/10 00:00:28;;;;;;;9.43;8.45;;;;;;;;;;5034223;28;20022;-56
2023/11/10 00:02:54;;;;;;;9.75;8.82;;;;;;;;;;5038604;28;20017;-58
2023/11/10 00:05:21;;;;;;;9.52;8.63;;;;;;;;;;5033598;28;20033;-59
2023/11/10 00:07:47;;;;;;;9.52;8.63;;;;;;;;;;5048102;28;20466;-59
2023/11/10 00:10:13;;;;;;;11.07;7.85;;;;;;;;;;5047861;28;20377;-58
2023/11/10 00:12:39;;;;;;;7.82;7.03;;;;;;;;;;5050073;28;20087;-56
2023/11/10 00:15:09;;;;;;;8.75;7.85;;;;;;;;;;5033802;28;20475;-57
2023/11/10 00:17:35;;;;;;;8.00;7.22;;;;;;;;;;5049731;28;20090;-57
2023/11/10 00:20:02;;;;;;;9.25;7.32;;;;;;;;;;5044529;28;20099;-58
2023/11/10 00:22:31;;;;;;;8.35;7.55;;;;;;;;;;5042375;28;20059;-58
2023/11/10 00:24:57;;;;;;;7.68;6.88;;;;;;;;;;5046937;28;20024;-56
2023/11/10 00:27:23;;;;;;;8.93;7.88;;;;;;;;;;5038160;28;20395;-56
2023/11/10 00:29:49;;;;;;;9.57;6.88;;;;;;;;;;5037610;28;20116;-58
2023/11/10 00:32:15;;;;;;;8.43;7.63;;;;;;;;;;5044855;28;20450;-58
2023/11/10 00:34:41;;;;;;;8.23;7.43;;;;;;;;;;5043790;28;20036;-59
2023/11/10 00:37:07;;;;;;;7.05;6.38;;;;;;;;;;5050948;28;20040;-57
2023/11/10 00:39:33;;;;;;;10.93;7.50;;;;;;;;;;5042955;28;20029;-56
2023/11/10 00:41:59;;;;;;;8.32;7.53;;;;;;;;;;5032378;28;20059;-57
2023/11/10 00:44:27;;;;;;;9.48;8.13;;;;;;;;;;5042180;28;20060;-58
2023/11/10 00:46:53;;;;;;;8.38;7.22;;;;;;;;;;5046200;28;20048;-57
2023/11/10 00:49:19;;;;;;;7.65;6.85;;;;;;;;;;5043569;28;20386;-54
2023/11/10 00:51:46;;;;;;;7.38;6.10;;;;;;;;;;5051004;28;20083;-56
2023/11/10 00:54:12;;;;;;;7.20;6.30;;;;;;;;;;5050062;28;20482;-57
2023/11/10 00:56:38;;;;;;;7.88;6.03;;;;;;;;;;5045282;28;20465;-58
2023/11/10 00:59:04;;;;;;;7.25;6.10;;;;;;;;;;5041452;28;20029;-59
2023/11/10 01:01:34;;;;;;;6.85;5.95;;;;;;;;;;5045213;28;20028;-59
2023/11/10 01:04:01;;;;;;;7.47;5.57;;;;;;;;;;5043874;28;20025;-58
2023/11/10 01:06:28;;;;;;;7.18;6.18;;;;;;;;;;5048994;28;20029;-59
2023/11/10 01:08:54;;;;;;;6.25;5.65;;;;;;;;;;5050395;28;20095;-57
2023/11/10 01:11:20;;;;;;;6.70;5.82;;;;;;;;;;5043036;28;20108;-59
2023/11/10 01:13:46;;;;;;;7.30;5.53;;;;;;;;;;5040215;28;20390;-57
2023/11/10 01:16:12;;;;;;;6.43;5.85;;;;;;;;;;5048022;28;20055;-58
2023/11/10 01:18:38;;;;;;;6.57;5.97;;;;;;;;;;5043426;28;20359;-59
2023/11/10 01:21:04;;;;;;;5.47;4.97;;;;;;;;;;5048597;28;20017;-58
2023/11/10 01:23:30;;;;;;;6.32;5.72;;;;;;;;;;5042626;28;20022;-58
2023/11/10 01:25:56;;;;;;;5.90;5.28;;;;;;;;;;5046152;28;20041;-58
2023/11/10 01:28:22;;;;;;;5.05;4.40;;;;;;;;;;5049017;28;20111;-58
2023/11/10 01:30:48;;;;;;;5.32;4.80;;;;;;;;;;5051106;28;20094;-57
2023/11/10 01:33:14;;;;;;;5.05;4.43;;;;;;;;;;5046336;28;20025;-57
2023/11/10 01:35:40;;;;;;;6.43;4.72;;;;;;;;;;5033954;28;20100;-58
2023/11/10 01:38:06;;;;;;;5.80;4.20;;;;;;;;;;5034004;28;20037;-58
2023/11/10 01:40:41;;;;;;;6.88;4.75;;;;;;;;;;5039917;28;20029;-59
2023/11/10 01:43:08;;;;;;;5.35;4.70;;;;;;;;;;5042767;28;20061;-58
2023/11/10 01:45:34;;;;;;;6.75;4.65;;;;;;;;;;5038948;28;20130;-59
2023/11/10 01:48:00;;;;;;;5.50;5.00;;;;;;;;;;5049649;28;20463;-59
2023/11/10 01:50:27;;;;;;;4.95;4.35;;;;;;;;;;5055827;28;20032;-56
2023/11/10 01:52:53;;;;;;;5.88;5.25;;;;;;;;;;5058184;28;20487;-58
2023/11/10 01:55:19;;;;;;;5.32;4.82;;;;;;;;;;5055706;28;20029;-58
2023/11/10 01:57:46;;;;;;;5.28;4.78;;;;;;;;;;5052960;28;20082;-59
2023/11/10 02:00:13;;;;;;;4.93;4.50;;;;;;;;;;5052567;28;20024;-57
2023/11/10 02:02:39;;;;;;;4.90;4.50;;;;;;;;;;5056030;28;20029;-58
2023/11/10 02:05:06;;;;;;;9.98;4.15;;;;;;;;;;5055519;28;20041;-54
2023/11/10 02:07:32;;;;;;;5.30;3.70;;;;;;;;;;5054921;28;20047;-57
2023/11/10 02:09:58;;;;;;;4.25;3.95;;;;;;;;;;5058108;28;20025;-57
2023/11/10 02:12:24;;;;;;;3.50;2.55;;;;;;;;;;5048180;28;20472;-58
2023/11/10 02:14:50;;;;;;;3.92;3.50;;;;;;;;;;5053587;28;20021;-58
2023/11/10 02:17:16;;;;;;;3.80;3.50;;;;;;;;;;5057453;28;20482;-57
2023/11/10 02:19:42;;;;;;;4.32;3.92;;;;;;;;;;5040129;28;20053;-54
2023/11/10 02:22:08;;;;;;;4.78;4.15;;;;;;;;;;5039914;28;20399;-57
2023/11/10 02:24:34;;;;;;;5.93;4.90;;;;;;;;;;5053044;28;20028;-57
2023/11/10 02:27:00;;;;;;;5.28;4.53;;;;;;;;;;5046454;28;20041;-57
2023/11/10 02:29:26;;;;;;;7.60;4.88;;;;;;;;;;5041314;28;20479;-56
2023/11/10 02:31:54;;;;;;;7.60;5.43;;;;;;;;;;5048925;28;20132;-57
2023/11/10 02:34:20;;;;;;;7.00;5.70;;;;;;;;;;5049638;28;20052;-56
2023/11/10 02:36:47;;;;;;;7.35;6.65;;;;;;;;;;5049068;28;20071;-57
2023/11/10 02:39:13;;;;;;;7.47;6.32;;;;;;;;;;5047050;28;20487;-57
2023/11/10 02:41:39;;;;;;;8.73;7.82;;;;;;;;;;5051713;28;20104;-59
2023/11/10 02:44:05;;;;;;;7.85;7.15;;;;;;;;;;5050310;28;20047;-58
2023/11/10 02:46:31;;;;;;;9.77;8.57;;;;;;;;;;5045558;28;20873;-57
2023/11/10 02:48:59;;;;;;;9.77;8.77;;;;;;;;;;5040456;28;20116;-58
2023/11/10 02:51:25;;;;;;;9.57;8.68;;;;;;;;;;5051376;28;20033;-58
2023/11/10 02:53:51;;;;;;;8.95;8.02;;;;;;;;;;5046729;28;20033;-58
2023/11/10 02:56:18;;;;;;;9.05;8.15;;;;;;;;;;5047510;28;20446;-57
2023/11/10 02:58:46;;;;;;;11.52;9.45;;;;;;;;;;5043052;28;20040;-58
2023/11/10 03:01:21;;;;;;;9.55;8.65;;;;;;;;;;5050846;28;20028;-58
2023/11/10 03:03:47;;;;;;;9.48;8.55;;;;;;;;;;5049443;28;20037;-58
2023/11/10 03:06:13;;;;;;;10.77;8.75;;;;;;;;;;5056212;28;20041;-57
2023/11/10 03:08:39;;;;;;;9.18;8.32;;;;;;;;;;5049525;28;20074;-56
2023/11/10 03:11:05;;;;;;;10.32;9.32;;;;;;;;;;5047106;28;20021;-57
2023/11/10 03:13:32;;;;;;;9.48;8.68;;;;;;;;;;5040114;28;20084;-57
2023/11/10 03:15:59;;;;;;;10.88;9.85;;;;;;;;;;5040436;28;20059;-57
2023/11/10 03:18:25;;;;;;;10.82;9.77;;;;;;;;;;5049726;28;20014;-56
2023/11/10 03:20:51;;;;;;;10.63;9.52;;;;;;;;;;5050385;28;20041;-57
2023/11/10 03:23:17;;;;;;;10.20;9.23;;;;;;;;;;5048253;28;20154;-57
2023/11/10 03:25:43;;;;;;;10.30;9.30;;;;;;;;;;5051033;28;20065;-57
2023/11/10 03:28:09;;;;;;;10.13;9.20;;;;;;;;;;5050431;28;20043;-57
2023/11/10 03:30:35;;;;;;;9.52;8.52;;;;;;;;;;5048244;28;20034;-57
2023/11/10 03:33:01;;;;;;;10.43;9.32;;;;;;;;;;5046048;28;20080;-56
2023/11/10 03:35:27;;;;;;;9.55;8.65;;;;;;;;;;5054321;28;20037;-56
2023/11/10 03:37:53;;;;;;;10.27;8.70;;;;;;;;;;5041827;28;20100;-57
2023/11/10 03:40:20;;;;;;;9.32;8.43;;;;;;;;;;5056247;28;20799;-55
2023/11/10 03:42:46;;;;;;;10.43;9.43;;;;;;;;;;5050951;28;20041;-58
2023/11/10 03:45:12;;;;;;;8.95;8.15;;;;;;;;;;5044546;28;20025;-57
2023/11/10 03:47:39;;;;;;;7.25;6.55;;;;;;;;;;5050449;28;20041;-57
2023/11/10 03:50:06;;;;;;;6.65;6.10;;;;;;;;;;5055248;28;20032;-57
2023/11/10 03:52:32;;;;;;;7.78;7.07;;;;;;;;;;5039199;28;20072;-57
2023/11/10 03:54:58;;;;;;;8.20;7.38;;;;;;;;;;5045682;28;20060;-56
2023/11/10 03:57:24;;;;;;;8.27;7.07;;;;;;;;;;5049902;28;20174;-58
2023/11/10 03:59:50;;;;;;;7.50;6.75;;;;;;;;;;5039677;28;20029;-54
2023/11/10 04:02:16;;;;;;;7.70;7.05;;;;;;;;;;5041724;28;20062;-57
2023/11/10 04:04:42;;;;;;;7.90;6.63;;;;;;;;;;5041307;28;20041;-57
2023/11/10 04:07:10;;;;;;;8.18;7.03;;;;;;;;;;5046352;28;20111;-57
2023/11/10 04:09:36;;;;;;;8.10;7.30;;;;;;;;;;5052332;28;20032;-58
2023/11/10 04:12:03;;;;;;;8.20;7.40;;;;;;;;;;5044002;28;20038;-57
2023/11/10 04:14:29;;;;;;;7.28;6.57;;;;;;;;;;5047615;28;20021;-58
2023/11/10 04:16:56;;;;;;;8.85;7.28;;;;;;;;;;5045553;28;20141;-55
2023/11/10 04:19:22;;;;;;;8.02;7.28;;;;;;;;;;5051411;28;20026;-55
2023/11/10 04:21:48;;;;;;;8.20;7.40;;;;;;;;;;5034632;28;20017;-57
2023/11/10 04:24:14;;;;;;;7.28;6.60;;;;;;;;;;5037391;28;20024;-56
2023/11/10 04:26:41;;;;;;;6.97;6.35;;;;;;;;;;5041280;28;20037;-57
2023/11/10 04:29:09;;;;;;;6.88;6.18;;;;;;;;;;5040722;28;20087;-58
2023/11/10 04:31:35;;;;;;;6.57;6.00;;;;;;;;;;5053194;28;20043;-57
2023/11/10 04:34:02;;;;;;;7.07;6.38;;;;;;;;;;5037797;28;20107;-56
2023/11/10 04:36:32;;;;;;;6.82;5.88;;;;;;;;;;5037842;28;20025;-57
2023/11/10 04:38:58;;;;;;;7.15;6.03;;;;;;;;;;5050186;28;20048;-56
2023/11/10 04:41:24;;;;;;;9.38;6.00;;;;;;;;;;5053051;28;20502;-57
2023/11/10 04:43:50;;;;;;;7.13;6.45;;;;;;;;;;5050275;28;20078;-56
2023/11/10 04:46:16;;;;;;;7.47;6.20;;;;;;;;;;5043132;28;20442;-54
2023/11/10 04:48:42;;;;;;;6.75;6.13;;;;;;;;;;5047622;28;20036;-56
2023/11/10 04:51:08;;;;;;;6.97;6.30;;;;;;;;;;5044095;28;20117;-57
2023/11/10 04:53:34;;;;;;;6.43;5.82;;;;;;;;;;5038886;28;20044;-56
2023/11/10 04:56:01;;;;;;;6.90;6.30;;;;;;;;;;5054175;28;20054;-58
2023/11/10 04:58:29;;;;;;;5.95;5.35;;;;;;;;;;5049340;28;20030;-59
2023/11/10 05:00:55;;;;;;;6.45;5.72;;;;;;;;;;5045446;28;20033;-58
2023/11/10 05:03:24;;;;;;;6.13;5.53;;;;;;;;;;5052715;28;20021;-57
2023/11/10 05:05:50;;;;;;;8.20;6.05;;;;;;;;;;5049224;28;20060;-60
2023/11/10 05:08:16;;;;;;;5.85;5.35;;;;;;;;;;5050143;28;20437;-57
2023/11/10 05:10:43;;;;;;;6.68;6.07;;;;;;;;;;5049115;28;20496;-58
2023/11/10 05:13:09;;;;;;;7.47;6.35;;;;;;;;;;5048677;28;20160;-58
2023/11/10 05:15:38;;;;;;;7.80;6.88;;;;;;;;;;5044509;28;20044;-58
2023/11/10 05:18:04;;;;;;;6.90;6.20;;;;;;;;;;5050212;28;20052;-58
2023/11/10 05:20:31;;;;;;;7.10;6.40;;;;;;;;;;5056556;28;20040;-59
2023/11/10 05:22:58;;;;;;;8.02;6.47;;;;;;;;;;5044320;28;20445;-58
2023/11/10 05:25:24;;;;;;;8.40;6.22;;;;;;;;;;5043685;28;20491;-57
2023/11/10 05:27:50;;;;;;;8.55;6.75;;;;;;;;;;5042020;28;20079;-58
2023/11/10 05:30:19;;;;;;;7.55;6.85;;;;;;;;;;5042808;28;20775;-57
2023/11/10 05:32:47;;;;;;;7.90;7.03;;;;;;;;;;5039548;28;20039;-57
2023/11/10 05:35:13;;;;;;;7.05;6.35;;;;;;;;;;5049749;28;20146;-58
2023/11/10 05:37:39;;;;;;;7.63;6.70;;;;;;;;;;5046415;28;20084;-57
2023/11/10 05:40:09;;;;;;;8.68;6.35;;;;;;;;;;5043364;28;20040;-58
2023/11/10 05:42:36;;;;;;;7.93;7.13;;;;;;;;;;5050346;28;20048;-58
2023/11/10 05:45:02;;;;;;;8.57;6.82;;;;;;;;;;5043931;28;20111;-58
2023/11/10 05:47:28;;;;;;;7.05;6.45;;;;;;;;;;5041940;28;20064;-57
2023/11/10 05:49:54;;;;;;;11.20;6.78;;;;;;;;;;5044569;28;20149;-56
2023/11/10 05:52:21;;;;;;;7.93;7.10;;;;;;;;;;5049649;28;20056;-57
2023/11/10 05:54:47;;;;;;;7.25;6.50;;;;;;;;;;5043781;28;20559;-58
2023/11/10 05:57:14;;;;;;;7.45;6.72;;;;;;;;;;5043916;28;20104;-59
2023/11/10 05:59:41;;;;;;;8.57;7.32;;;;;;;;;;5044158;28;20067;-57
2023/11/10 06:02:09;;;;;;;7.32;6.63;;;;;;;;;;5045001;28;20067;-58
2023/11/10 06:04:35;;;;;;;8.02;6.88;;;;;;;;;;5048206;28;20029;-57
2023/11/10 06:07:01;;;;;;;8.25;7.32;;;;;;;;;;5048766;28;20036;-59
2023/11/10 06:09:27;;;;;;;11.02;7.35;;;;;;;;;;5037547;28;20101;-57
2023/11/10 06:11:54;;;;;;;8.52;7.72;;;;;;;;;;5043949;28;20024;-58
2023/11/10 06:14:20;;;;;;;8.77;7.35;;;;;;;;;;5043456;28;20064;-58
2023/11/10 06:16:47;;;;;;;8.45;7.65;;;;;;;;;;5051527;28;20056;-58
2023/11/10 06:19:15;;;;;;;8.57;7.55;;;;;;;;;;5042234;28;20025;-57
2023/11/10 06:21:41;;;;;;;8.48;7.68;;;;;;;;;;5037436;28;20021;-58
2023/11/10 06:24:08;;;;;;;10.88;7.97;;;;;;;;;;5039014;28;20069;-59
2023/11/10 06:26:35;;;;;;;9.65;8.70;;;;;;;;;;5045908;28;20035;-58
2023/11/10 06:29:03;;;;;;;10.70;8.27;;;;;;;;;;5049264;28;20025;-58
2023/11/10 06:31:29;;;;;;;11.02;8.30;;;;;;;;;;5041150;28;20017;-56
2023/11/10 06:33:55;;;;;;;11.50;8.30;;;;;;;;;;5035010;28;20026;-56
2023/11/10 06:36:21;;;;;;;9.23;8.15;;;;;;;;;;5044975;28;20098;-58
2023/11/10 06:38:48;;;;;;;10.45;8.45;;;;;;;;;;5050285;28;20040;-58
2023/11/10 06:41:14;;;;;;;8.13;7.32;;;;;;;;;;5048907;28;20120;-58
2023/11/10 06:43:43;;;;;;;9.18;7.72;;;;;;;;;;5056702;28;20095;-58
2023/11/10 06:46:09;;;;;;;8.63;7.70;;;;;;;;;;5046231;28;20098;-58
2023/11/10 06:48:36;;;;;;;9.73;7.47;;;;;;;;;;5043754;28;20036;-58
2023/11/10 06:51:02;;;;;;;8.85;7.70;;;;;;;;;;5035612;28;20029;-57
2023/11/10 06:53:29;;;;;;;8.77;7.88;;;;;;;;;;5036941;28;20057;-57
2023/11/10 06:55:56;;;;;;;8.55;7.05;;;;;;;;;;5039977;28;21946;-57
2023/11/10 06:58:22;;;;;;;8.45;7.55;;;;;;;;;;5038974;28;20022;-52
2023/11/10 07:00:49;;;;;;;8.57;7.32;;;;;;;;;;5044305;28;20091;-64
2023/11/10 07:03:17;;;;;;;9.40;7.85;;;;;;;;;;5047822;28;20025;-54
2023/11/10 07:05:43;;;;;;;9.15;8.05;;;;;;;;;;5048665;28;20047;-59
2023/11/10 07:08:12;;;;;;;8.82;7.60;;;;;;;;;;5049185;28;20045;-64
2023/11/10 07:10:44;;;;;;;9.23;7.63;;;;;;;;;;5046061;28;20024;-57
2023/11/10 07:13:14;;;;;;;9.63;8.27;;;;;;;;;;5048246;28;20482;-57
2023/11/10 07:15:40;;;;;;;9.05;8.10;;;;;;;;;;5048244;28;20028;-57
2023/11/10 07:18:06;;;;;;;9.98;8.13;;;;;;;;;;5052561;28;20035;-57
2023/11/10 07:20:32;;;;;;;8.57;7.78;;;;;;;;;;5065772;28;20028;-58
2023/11/10 07:22:58;;;;;;;9.27;8.00;;;;;;;;;;5045821;28;20095;-56
2023/11/10 07:25:28;;;;;;;9.65;8.13;;;;;;;;;;5043600;28;20035;-52
2023/11/10 07:27:56;;;;;;;10.43;8.98;;;;;;;;;;5052469;28;20037;-55
2023/11/10 07:30:23;;;;;;;10.75;7.85;;;;;;;;;;5051026;28;20025;-55
2023/11/10 07:32:52;;;;;;;9.57;7.63;;;;;;;;;;5052756;28;20027;-56
2023/11/10 07:35:18;;;;;;;8.88;7.97;;;;;;;;;;5059557;28;20120;-54
2023/11/10 07:37:45;;;;;;;7.95;6.65;;;;;;;;;;5046112;28;20030;-56
2023/11/10 07:40:12;;;;;;;9.25;8.32;;;;;;;;;;5040124;28;20052;-55
2023/11/10 07:42:38;;;;;;;9.90;8.30;;;;;;;;;;5041146;28;20052;-55
2023/11/10 07:45:05;;;;;;;10.75;8.35;;;;;;;;;;5050448;28;20028;-57
2023/11/10 07:47:31;;;;;;;9.15;8.05;;;;;;;;;;5058737;28;20045;-57
2023/11/10 07:49:57;;;;;;;9.75;7.25;;;;;;;;;;5050084;28;20036;-57
2023/11/10 07:52:24;;;;;;;9.68;8.18;;;;;;;;;;5045176;28;20115;-60
2023/11/10 07:54:50;;;;;;;9.63;7.68;;;;;;;;;;5038874;28;20068;-65
2023/11/10 07:57:17;;;;;;;10.57;7.15;;;;;;;;;;5040530;28;20041;-63
2023/11/10 07:59:43;;;;;;;8.85;6.90;;;;;;;;;;5042161;28;20029;-66
2023/11/10 08:02:11;;;;;;;8.07;6.65;;;;;;;;;;5036588;28;20120;-63
2023/11/10 08:04:38;;;;;;;7.78;6.45;;;;;;;;;;5030128;28;20112;-56
2023/11/10 08:07:05;;;;;;;7.45;6.50;;;;;;;;;;5052085;28;20029;-50
2023/11/10 08:09:33;;;;;;;7.45;6.53;;;;;;;;;;5053325;28;20055;-60
2023/11/10 08:11:59;;;;;;;7.53;6.57;;;;;;;;;;5052775;28;20013;-61
2023/11/10 08:14:25;;;;;;;7.70;6.90;;;;;;;;;;5045641;28;20025;-62
2023/11/10 08:16:51;;;;;;;7.15;6.45;;;;;;;;;;5050718;28;20136;-71
2023/11/10 08:19:18;;;;;;;8.10;6.78;;;;;;;;;;5040545;28;20047;-59
2023/11/10 08:21:45;;;;;;;11.05;7.32;;;;;;;;;;5065926;28;20031;-59
2023/11/10 08:24:11;;;;;;;8.90;7.15;;;;;;;;;;5049530;28;20522;-54
2023/11/10 08:26:38;;;;;;;6.55;5.93;;;;;;;;;;5048647;28;20145;-72
2023/11/10 08:29:04;;;;;;;9.07;5.93;;;;;;;;;;5043657;28;20067;-63
2023/11/10 08:31:31;;;;;;;10.70;6.47;;;;;;;;;;5040548;28;20537;-54
2023/11/10 08:33:57;;;;;;;6.38;5.68;;;;;;;;;;5042867;28;20025;-54
2023/11/10 08:36:23;;;;;;;10.88;6.43;;;;;;;;;;5043859;28;20447;-53
2023/11/10 08:38:49;;;;;;;9.68;6.65;;;;;;;;;;5049607;28;20108;-55
2023/11/10 08:41:16;;;;;;;6.60;5.90;;;;;;;;;;5049678;28;20036;-53
2023/11/10 08:43:42;;;;;;;9.20;6.07;;;;;;;;;;5046797;28;20546;-56
2023/11/10 08:46:08;;;;;;;12.02;6.60;;;;;;;;;;5048787;28;20021;-51
2023/11/10 08:48:34;;;;;;;8.07;5.32;;;;;;;;;;5047329;28;20482;-50
2023/11/10 08:51:02;;;;;;;8.05;5.13;;;;;;;;;;5052140;28;20024;-50
2023/11/10 08:53:29;;;;;;;6.43;4.00;;;;;;;;;;5045437;28;20386;-49
2023/11/10 08:55:57;;;;;;;4.93;4.05;;;;;;;;;;5044472;28;20382;-54
2023/11/10 08:58:23;;;;;;;5.35;4.53;;;;;;;;;;5041223;28;20037;-61
2023/11/10 09:00:49;;;;;;;9.27;4.25;;;;;;;;;;5038100;28;20379;-60
2023/11/10 09:03:15;;;;;;;11.18;4.13;;;;;;;;;;5046873;28;20124;-62
2023/11/10 09:05:40;;;;;;;11.43;4.57;;;;;;;;;;5051263;28;20021;-61
2023/11/10 09:08:06;;;;;;;10.20;5.25;;;;;;;;;;5042238;28;20069;-61
2023/11/10 09:10:32;;;;;;;7.55;5.03;;;;;;;;;;5051763;28;20035;-61
2023/11/10 09:12:58;;;;;;;5.85;4.70;;;;;;;;;;5049895;28;20037;-61
2023/11/10 09:15:24;;;;;;;8.07;4.70;;;;;;;;;;5051675;28;20025;-61
2023/11/10 09:17:50;;;;;;;7.13;4.78;;;;;;;;;;5049161;28;20462;-61
2023/11/10 09:20:17;;;;;;;5.43;4.03;;;;;;;;;;5046167;28;20054;-61
2023/11/10 09:22:43;;;;;;;5.88;3.92;;;;;;;;;;5051198;28;20370;-61
2023/11/10 09:25:13;;;;;;;5.28;4.68;;;;;;;;;;5051173;28;20053;-62
2023/11/10 09:27:39;;;;;;;6.28;4.28;;;;;;;;;;5050207;28;20029;-62
2023/11/10 09:30:07;;;;;;;5.32;4.22;;;;;;;;;;5046235;28;20048;-62
2023/11/10 09:32:33;;;;;;;5.07;4.55;;;;;;;;;;5048817;28;20025;-62
2023/11/10 09:34:59;;;;;;;6.25;4.80;;;;;;;;;;5055176;28;20343;-62
2023/11/10 09:37:25;;;;;;;5.40;4.30;;;;;;;;;;5047459;28;20053;-62
2023/11/10 09:39:51;;;;;;;9.45;5.43;;;;;;;;;;5051866;28;20060;-62
2023/11/10 09:42:18;;;;;;;6.88;4.47;;;;;;;;;;5052449;28;20478;-62
2023/11/10 09:44:53;;;;;;;6.32;4.18;;;;;;;;;;5052027;28;20078;-62
2023/11/10 09:47:22;;;;;;;4.60;4.15;;;;;;;;;;5053984;28;20033;-62
2023/11/10 09:49:49;;;;;;;5.18;3.80;;;;;;;;;;5052564;28;20021;-62
2023/11/10 09:52:15;;;;;;;3.70;3.40;;;;;;;;;;5047770;28;20025;-62
2023/11/10 09:54:42;;;;;;;5.72;3.78;;;;;;;;;;5047573;28;20600;-62
2023/11/10 09:57:09;;;;;;;4.07;3.42;;;;;;;;;;5045831;28;20109;-62
2023/11/10 09:59:36;;;;;;;4.38;3.35;;;;;;;;;;5045056;28;20063;-62
2023/11/10 10:02:02;;;;;;;6.55;4.32;;;;;;;;;;5055482;28;20036;-62
2023/11/10 10:04:28;;;;;;;4.90;3.78;;;;;;;;;;5054536;28;20410;-62
2023/11/10 10:06:56;;;;;;;5.72;4.70;;;;;;;;;;5046293;28;20091;-62
2023/11/10 10:09:22;;;;;;;5.97;5.32;;;;;;;;;;5052099;28;20020;-62
2023/11/10 10:11:48;;;;;;;10.70;5.72;;;;;;;;;;5048742;28;20021;-62
2023/11/10 10:14:14;;;;;;;7.45;6.30;;;;;;;;;;5057093;28;20021;-62
2023/11/10 10:16:53;;;;;;;6.47;5.88;;;;;;;;;;5057098;28;20092;-62
2023/11/10 10:19:23;;;;;;;7.15;6.28;;;;;;;;;;5050554;28;20032;-62
2023/11/10 10:21:48;;;;;;;7.50;5.45;;;;;;;;;;5046870;28;20013;-62
2023/11/10 10:24:14;;;;;;;9.27;6.30;;;;;;;;;;5051299;28;20371;-62
2023/11/10 10:26:40;;;;;;;8.20;6.10;;;;;;;;;;5051913;28;20032;-61
2023/11/10 10:29:08;;;;;;;7.63;6.30;;;;;;;;;;5053854;28;20371;-61
2023/11/10 10:31:34;;;;;;;7.20;6.50;;;;;;;;;;5054322;28;20025;-62
2023/11/10 10:34:04;;;;;;;6.47;5.78;;;;;;;;;;5055099;28;20025;-62
2023/11/10 10:36:39;;;;;;;7.00;5.85;;;;;;;;;;5046195;28;20027;-62
2023/11/10 10:39:12;;;;;;;6.78;5.60;;;;;;;;;;5045257;28;20025;-62
2023/11/10 10:41:40;;;;;;;6.72;6.07;;;;;;;;;;5054235;28;20048;-62
2023/11/10 10:44:08;;;;;;;8.82;7.30;;;;;;;;;;5056988;28;20421;-62
2023/11/10 10:46:34;;;;;;;9.48;7.10;;;;;;;;;;5046731;28;20455;-62
2023/11/10 10:49:00;;;;;;;6.13;5.30;;;;;;;;;;5046279;28;20446;-62
2023/11/10 10:51:28;;;;;;;8.90;5.95;;;;;;;;;;5052617;28;20033;-62
2023/11/10 10:53:54;;;;;;;6.40;5.78;;;;;;;;;;5048564;28;20420;-62
2023/11/10 10:56:20;;;;;;;7.50;6.78;;;;;;;;;;5056007;28;20070;-62
2023/11/10 10:58:46;;;;;;;8.10;7.30;;;;;;;;;;5050000;28;20046;-62
2023/11/10 11:01:15;;;;;;;9.50;6.60;;;;;;;;;;5054759;28;20028;-64
2023/11/10 11:03:47;;;;;;;8.40;6.80;;;;;;;;;;5055721;28;20478;-64
2023/11/10 11:06:40;;;;;;;10.75;7.28;;;;;;;;;;5051536;28;20475;-65
2023/11/10 11:09:34;;;;;;;8.35;7.55;;;;;;;;;;5047894;28;20025;-65
2023/11/10 11:12:20;;;;;;;8.50;7.05;;;;;;;;;;5050308;28;20025;-65
2023/11/10 11:14:58;;;;;;;8.23;6.55;;;;;;;;;;5055042;28;20032;-65
2023/11/10 11:17:36;;;;;;;6.65;5.93;;;;;;;;;;5056182;28;20036;-65
2023/11/10 11:20:04;;;;;;;7.95;5.38;;;;;;;;;;5057387;28;20036;-65
2023/11/10 11:22:30;;;;;;;5.95;5.30;;;;;;;;;;5057151;28;20066;-64
2023/11/10 11:25:09;;;;;;;5.47;4.97;;;;;;;;;;5048736;28;20059;-65
2023/11/10 11:27:35;;;;;;;5.45;4.40;;;;;;;;;;5055360;28;20449;-65
2023/11/10 11:30:07;;;;;;;4.50;4.10;;;;;;;;;;5058209;28;20017;-64
2023/11/10 11:32:33;;;;;;;5.28;4.70;;;;;;;;;;5052526;28;20040;-64
2023/11/10 11:35:00;;;;;;;6.15;4.60;;;;;;;;;;5051887;28;20029;-65
2023/11/10 11:37:32;;;;;;;6.75;4.95;;;;;;;;;;5052259;28;20025;-64
2023/11/10 11:40:01;;;;;;;8.23;4.57;;;;;;;;;;5052722;28;20199;-65
2023/11/10 11:42:38;;;;;;;4.57;4.10;;;;;;;;;;5051957;28;20052;-64
2023/11/10 11:45:15;;;;;;;6.72;5.05;;;;;;;;;;5047633;28;20032;-65
2023/11/10 11:47:42;;;;;;;5.78;4.82;;;;;;;;;;5042150;28;20068;-61
2023/11/10 11:50:12;;;;;;;5.13;4.60;;;;;;;;;;5045070;28;20036;-62
2023/11/10 11:52:41;;;;;;;5.70;5.20;;;;;;;;;;5051266;28;20028;-62
2023/11/10 11:55:07;;;;;;;7.00;5.57;;;;;;;;;;5042321;28;20179;-62
2023/11/10 11:57:35;;;;;;;7.80;6.03;;;;;;;;;;5051272;28;20029;-64
2023/11/10 12:00:08;;;;;;;8.05;5.47;;;;;;;;;;5045647;28;20105;-65
2023/11/10 12:02:36;;;;;;;6.43;5.32;;;;;;;;;;5052360;28;20394;-64
2023/11/10 12:05:05;;;;;;;6.95;5.90;;;;;;;;;;5051666;28;20550;-64
2023/11/10 12:07:32;;;;;;;5.82;5.32;;;;;;;;;;5053163;28;20033;-65
2023/11/10 12:09:58;;;;;;;7.85;5.95;;;;;;;;;;5051957;28;20100;-64
2023/11/10 12:12:26;;;;;;;7.57;5.85;;;;;;;;;;5052426;28;20025;-65
2023/11/10 12:14:52;;;;;;;6.43;5.78;;;;;;;;;;5049586;28;20073;-64
2023/11/10 12:17:18;;;;;;;6.68;5.82;;;;;;;;;;5051920;28;20025;-64
2023/11/10 12:19:44;;;;;;;7.35;5.85;;;;;;;;;;5045218;28;20094;-64
2023/11/10 12:22:10;;;;;;;7.38;5.90;;;;;;;;;;5052823;28;20028;-64
2023/11/10 12:24:36;;;;;;;6.75;5.47;;;;;;;;;;5051637;28;20104;-64
2023/11/10 12:27:02;;;;;;;7.53;5.93;;;;;;;;;;5051103;28;20481;-64
2023/11/10 12:29:29;;;;;;;8.35;6.00;;;;;;;;;;5050104;28;20047;-65
2023/11/10 12:31:55;;;;;;;4.90;4.50;;;;;;;;;;5052704;28;20016;-64
2023/11/10 12:34:24;;;;;;;4.70;4.30;;;;;;;;;;5041259;28;20033;-65
2023/11/10 12:36:50;;;;;;;5.20;4.60;;;;;;;;;;5045313;28;20013;-65
2023/11/10 12:39:20;;;;;;;5.85;4.63;;;;;;;;;;5050646;28;20048;-65
2023/11/10 12:41:46;;;;;;;5.43;4.93;;;;;;;;;;5052508;28;20352;-65
2023/11/10 12:44:14;;;;;;;8.25;5.28;;;;;;;;;;5050005;28;20425;-65
2023/11/10 12:46:57;;;;;;;5.47;4.38;;;;;;;;;;5041703;28;20379;-65
2023/11/10 12:49:24;;;;;;;5.53;5.03;;;;;;;;;;5049204;28;20128;-66
2023/11/10 12:51:50;;;;;;;7.22;4.57;;;;;;;;;;5052447;28;20035;-65
2023/11/10 12:54:20;;;;;;;5.32;4.82;;;;;;;;;;5051297;28;20029;-65
2023/11/10 12:56:46;;;;;;;5.88;5.05;;;;;;;;;;5050047;28;20347;-66
2023/11/10 12:59:14;;;;;;;5.28;4.80;;;;;;;;;;5052244;28;20029;-65
2023/11/10 13:01:42;;;;;;;6.40;5.70;;;;;;;;;;5051434;28;20025;-65
2023/11/10 13:04:09;;;;;;;7.18;5.45;;;;;;;;;;5049745;28;20036;-65
2023/11/10 13:06:35;;;;;;;5.72;4.38;;;;;;;;;;5052267;28;20134;-66
2023/11/10 13:09:01;;;;;;;7.60;5.05;;;;;;;;;;5051265;28;20048;-65
2023/11/10 13:11:27;;;;;;;7.10;5.00;;;;;;;;;;5052210;28;20070;-65
2023/11/10 13:13:53;;;;;;;6.82;5.63;;;;;;;;;;5045501;28;20021;-65
2023/11/10 13:16:22;;;;;;;6.03;5.30;;;;;;;;;;5050509;28;20064;-66
2023/11/10 13:18:48;;;;;;;5.75;5.22;;;;;;;;;;5050369;28;20323;-65
2023/11/10 13:21:14;;;;;;;6.75;5.75;;;;;;;;;;5048956;28;20033;-66
2023/11/10 13:23:40;;;;;;;7.38;5.88;;;;;;;;;;5049062;28;20063;-65
2023/11/10 13:26:06;;;;;;;8.98;6.35;;;;;;;;;;5049717;28;20181;-65
2023/11/10 13:28:32;;;;;;;7.38;6.07;;;;;;;;;;5048269;28;20501;-65
2023/11/10 13:31:07;;;;;;;9.98;5.63;;;;;;;;;;5049614;28;20025;-65
2023/11/10 13:33:34;;;;;;;6.22;5.38;;;;;;;;;;5049841;28;20056;-65
2023/11/10 13:36:02;;;;;;;5.75;5.00;;;;;;;;;;5051746;28;20021;-64
2023/11/10 13:38:28;;;;;;;10.27;6.05;;;;;;;;;;5047998;28;20112;-65
2023/11/10 13:40:56;;;;;;;7.32;5.40;;;;;;;;;;5051625;28;20164;-64
2023/11/10 13:43:22;;;;;;;6.63;5.93;;;;;;;;;;5049140;28;20025;-65
2023/11/10 13:45:48;;;;;;;5.78;5.20;;;;;;;;;;5051421;28;20096;-64
2023/11/10 13:48:15;;;;;;;7.68;6.13;;;;;;;;;;5049396;28;20183;-64
2023/11/10 13:50:41;;;;;;;7.03;6.10;;;;;;;;;;5051916;28;20009;-66
2023/11/10 13:53:07;;;;;;;8.40;6.18;;;;;;;;;;5050370;28;20044;-65
2023/11/10 13:55:33;;;;;;;8.35;6.63;;;;;;;;;;5048392;28;20052;-65
2023/11/10 13:57:59;;;;;;;7.90;7.10;;;;;;;;;;5048382;28;20040;-65
2023/11/10 14:00:26;;;;;;;7.97;6.40;;;;;;;;;;5043202;28;20026;-65
2023/11/10 14:02:52;;;;;;;8.25;6.63;;;;;;;;;;5050328;28;20075;-65
2023/11/10 14:05:18;;;;;;;6.68;5.60;;;;;;;;;;5051181;28;20022;-65
2023/11/10 14:07:45;;;;;;;7.85;5.88;;;;;;;;;;5050034;28;20035;-65
2023/11/10 14:10:12;;;;;;;6.80;6.10;;;;;;;;;;5050846;28;20021;-65
2023/11/10 14:12:39;;;;;;;4.45;4.05;;;;;;;;;;5048976;28;20532;-65
2023/11/10 14:15:07;;;;;;;9.15;5.63;;;;;;;;;;5051383;28;20021;-65
2023/11/10 14:17:33;;;;;;;6.78;5.05;;;;;;;;;;5048518;28;20356;-65
2023/11/10 14:19:59;;;;;;;11.85;6.97;;;;;;;;;;5051410;28;20028;-65
2023/11/10 14:22:27;;;;;;;7.97;6.65;;;;;;;;;;5049090;28;20029;-65
2023/11/10 14:24:56;;;;;;;11.55;5.97;;;;;;;;;;5051213;28;20028;-65
2023/11/10 14:27:22;;;;;;;8.07;6.57;;;;;;;;;;5047794;28;20033;-65
2023/11/10 14:29:48;;;;;;;6.72;5.47;;;;;;;;;;5051179;28;20017;-66
2023/11/10 14:32:15;;;;;;;8.05;5.40;;;;;;;;;;5049335;28;20061;-65
2023/11/10 14:34:42;;;;;;;7.38;5.10;;;;;;;;;;5049808;28;20381;-65
2023/11/10 14:37:10;;;;;;;8.07;5.38;;;;;;;;;;5049560;28;20207;-65
2023/11/10 14:39:36;;;;;;;7.82;5.93;;;;;;;;;;5045567;28;20082;-66